sensor_id;sensor_type;location;lat;lon;timestamp;noise_LAeq;noise_LA_min;noise_LA_max;noise_LA01;noise_LA95
72466;Laerm;60471;52.150;4.508;2023-08-31T00:01:32;59.35;41.42;72.09;;
72466;Laerm;60471;52.150;4.508;2023-08-31T00:04:00;59.44;40.54;71.36;;
72466;Laerm;60471;52.150;4.508;2023-08-31T00:06:26;58.90;39.16;71.65;;
72466;Laerm;60471;52.150;4.508;2023-08-31T00:08:52;58.86;39.70;70.94;;
72466;Laerm;60471;52.150;4.508;2023-08-31T00:11:18;59.07;39.91;71.03;;
72466;Laerm;60471;52.150;4.508;2023-08-31T00:13:45;58.97;38.95;71.97;;
72466;Laerm;60471;52.150;4.508;2023-08-31T00:16:12;59.07;39.09;71.66;;
72466;Laerm;60471;52.150;4.508;2023-08-31T00:18:38;59.63;38.65;71.23;;
72466;Laerm;60471;52.150;4.508;2023-08-31T00:21:04;58.92;38.78;71.15;;
72466;Laerm;60471;52.150;4.508;2023-08-31T00:23:31;58.76;39.93;70.69;;
72466;Laerm;60471;52.150;4.508;2023-08-31T00:25:57;58.91;38.18;71.66;;
72466;Laerm;60471;52.150;4.508;2023-08-31T00:28:23;58.96;39.65;72.21;;
72466;Laerm;60471;52.150;4.508;2023-08-31T00:30:51;58.97;39.98;71.46;;
72466;Laerm;60471;52.150;4.508;2023-08-31T00:33:17;59.07;39.91;71.10;;
72466;Laerm;60471;52.150;4.508;2023-08-31T00:35:44;59.00;41.33;71.00;;
72466;Laerm;60471;52.150;4.508;2023-08-31T00:38:13;59.17;41.73;72.36;;
72466;Laerm;60471;52.150;4.508;2023-08-31T00:40:41;59.06;41.26;71.26;;
72466;Laerm;60471;52.150;4.508;2023-08-31T00:43:13;58.77;39.74;71.24;;
72466;Laerm;60471;52.150;4.508;2023-08-31T00:45:42;58.98;40.47;70.97;;
72466;Laerm;60471;52.150;4.508;2023-08-31T00:48:09;59.19;41.79;71.25;;
72466;Laerm;60471;52.150;4.508;2023-08-31T00:50:35;59.13;40.27;70.85;;
72466;Laerm;60471;52.150;4.508;2023-08-31T00:53:03;59.08;39.38;70.89;;
72466;Laerm;60471;52.150;4.508;2023-08-31T00:55:29;59.26;39.66;72.31;;
72466;Laerm;60471;52.150;4.508;2023-08-31T00:57:56;59.01;40.21;71.15;;
72466;Laerm;60471;52.150;4.508;2023-08-31T01:00:40;58.92;40.20;71.55;;
72466;Laerm;60471;52.150;4.508;2023-08-31T01:04:02;58.36;39.02;71.82;;
72466;Laerm;60471;52.150;4.508;2023-08-31T01:06:46;58.40;39.26;71.13;;
72466;Laerm;60471;52.150;4.508;2023-08-31T01:09:36;58.60;40.44;71.96;;
72466;Laerm;60471;52.150;4.508;2023-08-31T01:12:18;58.75;38.95;71.14;;
72466;Laerm;60471;52.150;4.508;2023-08-31T01:15:00;58.85;40.25;71.12;;
72466;Laerm;60471;52.150;4.508;2023-08-31T01:17:31;58.80;40.81;70.88;;
72466;Laerm;60471;52.150;4.508;2023-08-31T01:20:00;59.15;39.87;71.25;;
72466;Laerm;60471;52.150;4.508;2023-08-31T01:22:55;58.54;40.80;71.63;;
72466;Laerm;60471;52.150;4.508;2023-08-31T01:25:24;59.01;42.30;71.36;;
72466;Laerm;60471;52.150;4.508;2023-08-31T01:27:51;59.18;42.45;71.26;;
72466;Laerm;60471;52.150;4.508;2023-08-31T01:30:17;59.35;41.08;71.24;;
72466;Laerm;60471;52.150;4.508;2023-08-31T01:32:44;59.05;41.45;71.00;;
72466;Laerm;60471;52.150;4.508;2023-08-31T01:35:16;59.07;39.95;71.17;;
72466;Laerm;60471;52.150;4.508;2023-08-31T01:37:57;58.49;40.47;70.76;;
72466;Laerm;60471;52.150;4.508;2023-08-31T01:40:33;58.83;39.35;71.13;;
72466;Laerm;60471;52.150;4.508;2023-08-31T01:43:03;59.00;39.08;71.69;;
72466;Laerm;60471;52.150;4.508;2023-08-31T01:45:33;59.17;39.85;71.39;;
72466;Laerm;60471;52.150;4.508;2023-08-31T01:48:00;59.16;40.08;71.75;;
72466;Laerm;60471;52.150;4.508;2023-08-31T01:50:27;59.04;39.03;70.94;;
72466;Laerm;60471;52.150;4.508;2023-08-31T01:52:53;59.18;39.86;71.57;;
72466;Laerm;60471;52.150;4.508;2023-08-31T01:55:19;59.19;40.55;71.28;;
72466;Laerm;60471;52.150;4.508;2023-08-31T01:57:48;59.28;39.10;71.09;;
72466;Laerm;60471;52.150;4.508;2023-08-31T02:00:17;59.23;39.99;71.91;;
72466;Laerm;60471;52.150;4.508;2023-08-31T02:02:43;59.25;39.38;71.24;;
72466;Laerm;60471;52.150;4.508;2023-08-31T02:05:10;59.32;40.53;71.61;;
72466;Laerm;60471;52.150;4.508;2023-08-31T02:07:36;59.38;41.39;71.23;;
72466;Laerm;60471;52.150;4.508;2023-08-31T02:10:03;59.36;40.74;71.58;;
72466;Laerm;60471;52.150;4.508;2023-08-31T02:12:33;59.22;40.80;71.66;;
72466;Laerm;60471;52.150;4.508;2023-08-31T02:14:59;59.22;39.42;71.10;;
72466;Laerm;60471;52.150;4.508;2023-08-31T02:17:26;59.45;41.31;71.07;;
72466;Laerm;60471;52.150;4.508;2023-08-31T02:19:52;59.51;41.35;71.72;;
72466;Laerm;60471;52.150;4.508;2023-08-31T02:22:18;59.36;42.32;71.42;;
72466;Laerm;60471;52.150;4.508;2023-08-31T02:24:44;59.24;39.94;71.46;;
72466;Laerm;60471;52.150;4.508;2023-08-31T02:27:10;59.56;41.27;71.48;;
72466;Laerm;60471;52.150;4.508;2023-08-31T02:29:37;59.37;41.16;72.01;;
72466;Laerm;60471;52.150;4.508;2023-08-31T02:32:06;59.35;41.27;71.43;;
72466;Laerm;60471;52.150;4.508;2023-08-31T02:34:33;59.37;40.93;71.33;;
72466;Laerm;60471;52.150;4.508;2023-08-31T02:36:59;59.43;41.71;71.34;;
72466;Laerm;60471;52.150;4.508;2023-08-31T02:39:25;59.37;41.99;70.98;;
72466;Laerm;60471;52.150;4.508;2023-08-31T02:41:52;59.34;41.41;71.85;;
72466;Laerm;60471;52.150;4.508;2023-08-31T02:44:18;64.05;41.27;86.84;;
72466;Laerm;60471;52.150;4.508;2023-08-31T02:46:44;59.26;41.30;70.92;;
72466;Laerm;60471;52.150;4.508;2023-08-31T02:49:10;59.17;41.39;71.18;;
72466;Laerm;60471;52.150;4.508;2023-08-31T02:51:36;59.22;41.90;71.41;;
72466;Laerm;60471;52.150;4.508;2023-08-31T02:54:03;59.42;41.52;71.93;;
72466;Laerm;60471;52.150;4.508;2023-08-31T02:56:29;59.28;40.79;71.32;;
72466;Laerm;60471;52.150;4.508;2023-08-31T02:58:55;59.40;42.45;72.81;;
72466;Laerm;60471;52.150;4.508;2023-08-31T03:01:21;59.33;40.96;71.09;;
72466;Laerm;60471;52.150;4.508;2023-08-31T03:03:49;59.20;41.70;71.31;;
72466;Laerm;60471;52.150;4.508;2023-08-31T03:06:15;59.29;42.07;71.29;;
72466;Laerm;60471;52.150;4.508;2023-08-31T03:08:41;59.36;41.73;71.14;;
72466;Laerm;60471;52.150;4.508;2023-08-31T03:11:08;59.20;42.69;70.88;;
72466;Laerm;60471;52.150;4.508;2023-08-31T03:13:34;59.21;42.42;71.56;;
72466;Laerm;60471;52.150;4.508;2023-08-31T03:16:01;59.21;42.74;70.72;;
72466;Laerm;60471;52.150;4.508;2023-08-31T03:18:28;59.22;43.17;71.19;;
72466;Laerm;60471;52.150;4.508;2023-08-31T03:20:55;59.28;43.19;71.23;;
72466;Laerm;60471;52.150;4.508;2023-08-31T03:23:21;59.12;43.84;70.73;;
72466;Laerm;60471;52.150;4.508;2023-08-31T03:25:48;59.44;43.41;71.56;;
72466;Laerm;60471;52.150;4.508;2023-08-31T03:28:14;59.41;44.27;71.34;;
72466;Laerm;60471;52.150;4.508;2023-08-31T03:30:40;59.42;44.36;71.17;;
72466;Laerm;60471;52.150;4.508;2023-08-31T03:33:06;59.21;45.18;70.94;;
72466;Laerm;60471;52.150;4.508;2023-08-31T03:35:33;59.25;43.72;70.85;;
72466;Laerm;60471;52.150;4.508;2023-08-31T03:37:59;59.59;44.72;71.23;;
72466;Laerm;60471;52.150;4.508;2023-08-31T03:40:26;59.34;45.45;71.20;;
72466;Laerm;60471;52.150;4.508;2023-08-31T03:42:52;59.50;45.64;71.74;;
72466;Laerm;60471;52.150;4.508;2023-08-31T03:45:20;59.32;44.40;71.37;;
72466;Laerm;60471;52.150;4.508;2023-08-31T03:47:46;59.33;45.07;71.40;;
72466;Laerm;60471;52.150;4.508;2023-08-31T03:50:13;59.35;46.10;70.96;;
72466;Laerm;60471;52.150;4.508;2023-08-31T03:52:39;59.46;46.35;74.67;;
72466;Laerm;60471;52.150;4.508;2023-08-31T03:55:05;59.39;45.43;71.06;;
72466;Laerm;60471;52.150;4.508;2023-08-31T03:57:32;59.67;46.32;72.36;;
72466;Laerm;60471;52.150;4.508;2023-08-31T03:59:58;59.58;47.16;71.42;;
72466;Laerm;60471;52.150;4.508;2023-08-31T04:02:24;59.81;48.34;72.20;;
72466;Laerm;60471;52.150;4.508;2023-08-31T04:04:50;59.76;47.60;71.35;;
72466;Laerm;60471;52.150;4.508;2023-08-31T04:07:16;59.49;46.46;71.52;;
72466;Laerm;60471;52.150;4.508;2023-08-31T04:09:43;59.87;48.60;71.15;;
72466;Laerm;60471;52.150;4.508;2023-08-31T04:12:09;59.72;46.65;72.09;;
72466;Laerm;60471;52.150;4.508;2023-08-31T04:14:35;60.15;46.36;72.30;;
72466;Laerm;60471;52.150;4.508;2023-08-31T04:17:02;59.97;46.65;71.01;;
72466;Laerm;60471;52.150;4.508;2023-08-31T04:19:30;59.64;46.52;71.23;;
72466;Laerm;60471;52.150;4.508;2023-08-31T04:21:57;59.51;44.71;71.48;;
72466;Laerm;60471;52.150;4.508;2023-08-31T04:24:23;59.61;45.32;70.88;;
72466;Laerm;60471;52.150;4.508;2023-08-31T04:26:49;59.28;45.19;71.81;;
72466;Laerm;60471;52.150;4.508;2023-08-31T04:29:17;59.55;46.37;71.22;;
72466;Laerm;60471;52.150;4.508;2023-08-31T04:31:43;60.24;47.43;71.69;;
72466;Laerm;60471;52.150;4.508;2023-08-31T04:34:09;59.87;46.88;71.32;;
72466;Laerm;60471;52.150;4.508;2023-08-31T04:36:35;59.92;47.34;71.37;;
72466;Laerm;60471;52.150;4.508;2023-08-31T04:39:02;60.65;47.26;71.85;;
72466;Laerm;60471;52.150;4.508;2023-08-31T04:41:29;59.80;46.56;71.76;;
72466;Laerm;60471;52.150;4.508;2023-08-31T04:43:55;60.74;46.14;71.28;;
72466;Laerm;60471;52.150;4.508;2023-08-31T04:46:22;60.17;47.94;71.44;;
72466;Laerm;60471;52.150;4.508;2023-08-31T04:48:48;60.64;49.60;71.24;;
72466;Laerm;60471;52.150;4.508;2023-08-31T04:51:35;61.29;51.52;71.82;;
72466;Laerm;60471;52.150;4.508;2023-08-31T04:54:05;62.23;53.06;73.09;;
72466;Laerm;60471;52.150;4.508;2023-08-31T04:56:32;62.01;51.74;71.48;;
72466;Laerm;60471;52.150;4.508;2023-08-31T04:59:00;60.66;49.73;71.60;;
72466;Laerm;60471;52.150;4.508;2023-08-31T05:01:26;61.08;48.78;71.60;;
72466;Laerm;60471;52.150;4.508;2023-08-31T05:03:53;60.85;48.69;71.16;;
72466;Laerm;60471;52.150;4.508;2023-08-31T05:06:19;60.42;48.31;71.11;;
72466;Laerm;60471;52.150;4.508;2023-08-31T05:08:49;61.74;47.90;71.51;;
72466;Laerm;60471;52.150;4.508;2023-08-31T05:11:16;61.09;48.78;71.44;;
72466;Laerm;60471;52.150;4.508;2023-08-31T05:13:42;60.99;48.90;71.66;;
72466;Laerm;60471;52.150;4.508;2023-08-31T05:16:09;61.96;50.02;71.80;;
72466;Laerm;60471;52.150;4.508;2023-08-31T05:18:36;60.83;49.83;71.55;;
72466;Laerm;60471;52.150;4.508;2023-08-31T05:21:03;61.30;48.03;71.27;;
72466;Laerm;60471;52.150;4.508;2023-08-31T05:23:29;60.61;49.19;72.89;;
72466;Laerm;60471;52.150;4.508;2023-08-31T05:25:56;60.69;47.74;71.89;;
72466;Laerm;60471;52.150;4.508;2023-08-31T05:28:23;61.46;49.23;71.73;;
72466;Laerm;60471;52.150;4.508;2023-08-31T05:30:56;59.92;48.32;71.57;;
72466;Laerm;60471;52.150;4.508;2023-08-31T05:33:23;61.24;50.47;71.28;;
72466;Laerm;60471;52.150;4.508;2023-08-31T05:35:51;61.04;51.34;71.47;;
72466;Laerm;60471;52.150;4.508;2023-08-31T05:38:17;61.30;50.54;72.27;;
72466;Laerm;60471;52.150;4.508;2023-08-31T05:40:44;61.55;50.52;71.39;;
72466;Laerm;60471;52.150;4.508;2023-08-31T05:43:15;61.37;50.70;71.10;;
72466;Laerm;60471;52.150;4.508;2023-08-31T05:45:42;61.13;50.01;71.79;;
72466;Laerm;60471;52.150;4.508;2023-08-31T05:48:08;62.17;53.01;81.15;;
72466;Laerm;60471;52.150;4.508;2023-08-31T05:50:35;61.27;50.82;71.83;;
72466;Laerm;60471;52.150;4.508;2023-08-31T05:53:03;61.50;50.39;71.56;;
72466;Laerm;60471;52.150;4.508;2023-08-31T05:55:30;60.85;49.60;71.28;;
72466;Laerm;60471;52.150;4.508;2023-08-31T05:57:56;61.45;49.49;71.94;;
72466;Laerm;60471;52.150;4.508;2023-08-31T06:00:22;61.77;51.29;71.14;;
72466;Laerm;60471;52.150;4.508;2023-08-31T06:02:49;61.23;49.57;72.01;;
72466;Laerm;60471;52.150;4.508;2023-08-31T06:05:15;61.26;51.65;71.63;;
72466;Laerm;60471;52.150;4.508;2023-08-31T06:07:45;60.78;50.35;70.89;;
72466;Laerm;60471;52.150;4.508;2023-08-31T06:10:11;61.17;50.24;72.03;;
72466;Laerm;60471;52.150;4.508;2023-08-31T06:12:38;60.89;49.66;71.47;;
72466;Laerm;60471;52.150;4.508;2023-08-31T06:15:04;65.05;52.65;77.77;;
72466;Laerm;60471;52.150;4.508;2023-08-31T06:17:31;61.49;51.56;71.82;;
72466;Laerm;60471;52.150;4.508;2023-08-31T06:19:57;60.71;50.35;71.17;;
72466;Laerm;60471;52.150;4.508;2023-08-31T06:22:23;62.04;51.39;71.41;;
72466;Laerm;60471;52.150;4.508;2023-08-31T06:24:50;61.56;51.37;71.54;;
72466;Laerm;60471;52.150;4.508;2023-08-31T06:27:18;61.19;51.50;72.02;;
72466;Laerm;60471;52.150;4.508;2023-08-31T06:29:44;61.01;49.87;71.31;;
72466;Laerm;60471;52.150;4.508;2023-08-31T06:32:11;61.33;52.01;71.23;;
72466;Laerm;60471;52.150;4.508;2023-08-31T06:34:37;61.37;50.22;71.94;;
72466;Laerm;60471;52.150;4.508;2023-08-31T06:37:03;61.52;52.46;72.10;;
72466;Laerm;60471;52.150;4.508;2023-08-31T06:39:30;61.37;51.05;70.91;;
72466;Laerm;60471;52.150;4.508;2023-08-31T06:41:56;61.75;52.12;71.35;;
72466;Laerm;60471;52.150;4.508;2023-08-31T06:44:22;61.60;52.08;71.21;;
72466;Laerm;60471;52.150;4.508;2023-08-31T06:46:48;61.93;51.60;82.07;;
72466;Laerm;60471;52.150;4.508;2023-08-31T06:49:15;61.32;51.40;72.82;;
72466;Laerm;60471;52.150;4.508;2023-08-31T06:51:41;61.38;50.93;71.68;;
72466;Laerm;60471;52.150;4.508;2023-08-31T06:54:07;61.23;52.02;72.21;;
72466;Laerm;60471;52.150;4.508;2023-08-31T06:56:34;61.57;50.44;71.99;;
72466;Laerm;60471;52.150;4.508;2023-08-31T06:59:01;62.22;51.99;77.22;;
72466;Laerm;60471;52.150;4.508;2023-08-31T07:01:29;60.91;51.00;71.93;;
72466;Laerm;60471;52.150;4.508;2023-08-31T07:03:55;60.61;49.49;71.19;;
72466;Laerm;60471;52.150;4.508;2023-08-31T07:06:22;61.17;49.20;78.26;;
72466;Laerm;60471;52.150;4.508;2023-08-31T07:08:48;60.72;47.90;71.49;;
72466;Laerm;60471;52.150;4.508;2023-08-31T07:11:15;60.84;49.55;71.39;;
72466;Laerm;60471;52.150;4.508;2023-08-31T07:13:41;63.19;48.98;84.86;;
72466;Laerm;60471;52.150;4.508;2023-08-31T07:16:08;62.45;48.05;82.61;;
72466;Laerm;60471;52.150;4.508;2023-08-31T07:18:36;62.48;50.25;79.35;;
72466;Laerm;60471;52.150;4.508;2023-08-31T07:21:02;62.35;49.90;79.71;;
72466;Laerm;60471;52.150;4.508;2023-08-31T07:23:30;61.30;51.61;71.37;;
72466;Laerm;60471;52.150;4.508;2023-08-31T07:25:57;60.79;50.50;71.29;;
72466;Laerm;60471;52.150;4.508;2023-08-31T07:28:27;60.78;51.69;71.64;;
72466;Laerm;60471;52.150;4.508;2023-08-31T07:31:06;60.01;48.43;71.21;;
72466;Laerm;60471;52.150;4.508;2023-08-31T07:33:34;60.21;48.80;71.70;;
72466;Laerm;60471;52.150;4.508;2023-08-31T07:36:02;60.39;48.85;72.07;;
72466;Laerm;60471;52.150;4.508;2023-08-31T07:38:30;59.83;47.79;71.08;;
72466;Laerm;60471;52.150;4.508;2023-08-31T07:40:57;60.72;50.22;71.31;;
72466;Laerm;60471;52.150;4.508;2023-08-31T07:43:25;60.69;48.67;71.73;;
72466;Laerm;60471;52.150;4.508;2023-08-31T07:45:53;60.82;49.03;71.05;;
72466;Laerm;60471;52.150;4.508;2023-08-31T07:48:19;60.12;48.46;70.77;;
72466;Laerm;60471;52.150;4.508;2023-08-31T07:50:46;60.37;47.37;72.47;;
72466;Laerm;60471;52.150;4.508;2023-08-31T07:53:12;61.39;50.96;74.02;;
72466;Laerm;60471;52.150;4.508;2023-08-31T07:55:39;60.03;47.53;71.36;;
72466;Laerm;60471;52.150;4.508;2023-08-31T07:58:06;62.31;47.84;75.75;;
72466;Laerm;60471;52.150;4.508;2023-08-31T08:00:32;60.18;49.77;71.31;;
72466;Laerm;60471;52.150;4.508;2023-08-31T08:02:59;60.50;48.40;71.66;;
72466;Laerm;60471;52.150;4.508;2023-08-31T08:05:25;60.51;50.76;70.83;;
72466;Laerm;60471;52.150;4.508;2023-08-31T08:07:53;60.39;49.42;70.89;;
72466;Laerm;60471;52.150;4.508;2023-08-31T08:10:19;60.89;49.63;71.92;;
72466;Laerm;60471;52.150;4.508;2023-08-31T08:12:46;60.93;50.16;72.03;;
72466;Laerm;60471;52.150;4.508;2023-08-31T08:15:13;61.76;51.86;71.11;;
72466;Laerm;60471;52.150;4.508;2023-08-31T08:17:39;59.99;48.71;71.46;;
72466;Laerm;60471;52.150;4.508;2023-08-31T08:20:07;60.03;49.55;70.63;;
72466;Laerm;60471;52.150;4.508;2023-08-31T08:22:33;60.19;49.02;71.27;;
72466;Laerm;60471;52.150;4.508;2023-08-31T08:24:59;60.55;48.16;71.27;;
72466;Laerm;60471;52.150;4.508;2023-08-31T08:27:26;60.46;50.00;70.87;;
72466;Laerm;60471;52.150;4.508;2023-08-31T08:29:53;60.28;49.00;71.19;;
72466;Laerm;60471;52.150;4.508;2023-08-31T08:32:19;60.23;51.11;70.58;;
72466;Laerm;60471;52.150;4.508;2023-08-31T08:34:45;60.17;49.70;71.44;;
72466;Laerm;60471;52.150;4.508;2023-08-31T08:37:11;60.96;48.82;73.77;;
72466;Laerm;60471;52.150;4.508;2023-08-31T08:39:38;61.91;52.41;71.34;;
72466;Laerm;60471;52.150;4.508;2023-08-31T08:42:04;60.45;50.16;70.53;;
72466;Laerm;60471;52.150;4.508;2023-08-31T08:44:35;60.24;50.70;73.17;;
72466;Laerm;60471;52.150;4.508;2023-08-31T08:47:02;61.34;51.08;71.30;;
72466;Laerm;60471;52.150;4.508;2023-08-31T08:49:31;60.42;49.57;71.35;;
72466;Laerm;60471;52.150;4.508;2023-08-31T08:51:59;59.91;49.60;71.70;;
72466;Laerm;60471;52.150;4.508;2023-08-31T08:54:27;60.77;50.81;71.25;;
72466;Laerm;60471;52.150;4.508;2023-08-31T08:56:53;61.45;49.45;70.44;;
72466;Laerm;60471;52.150;4.508;2023-08-31T08:59:19;60.65;50.56;70.50;;
72466;Laerm;60471;52.150;4.508;2023-08-31T09:01:46;60.01;50.01;71.09;;
72466;Laerm;60471;52.150;4.508;2023-08-31T09:04:12;61.02;50.67;71.93;;
72466;Laerm;60471;52.150;4.508;2023-08-31T09:06:39;61.26;52.86;71.36;;
72466;Laerm;60471;52.150;4.508;2023-08-31T09:09:08;61.01;50.56;71.79;;
72466;Laerm;60471;52.150;4.508;2023-08-31T09:11:35;60.39;51.37;71.73;;
72466;Laerm;60471;52.150;4.508;2023-08-31T09:14:20;60.95;48.83;71.69;;
72466;Laerm;60471;52.150;4.508;2023-08-31T09:16:51;59.83;48.66;71.20;;
72466;Laerm;60471;52.150;4.508;2023-08-31T09:19:26;60.76;50.04;70.30;;
72466;Laerm;60471;52.150;4.508;2023-08-31T09:21:56;60.12;49.12;71.04;;
72466;Laerm;60471;52.150;4.508;2023-08-31T09:24:23;60.67;50.79;70.89;;
72466;Laerm;60471;52.150;4.508;2023-08-31T09:26:55;61.32;49.32;71.08;;
72466;Laerm;60471;52.150;4.508;2023-08-31T09:29:22;60.02;48.09;71.82;;
72466;Laerm;60471;52.150;4.508;2023-08-31T09:31:48;60.03;48.38;70.85;;
72466;Laerm;60471;52.150;4.508;2023-08-31T09:34:16;60.71;52.21;76.13;;
72466;Laerm;60471;52.150;4.508;2023-08-31T09:36:43;60.43;49.56;70.28;;
72466;Laerm;60471;52.150;4.508;2023-08-31T09:39:10;60.70;50.07;70.18;;
72466;Laerm;60471;52.150;4.508;2023-08-31T09:41:54;60.47;52.45;71.64;;
72466;Laerm;60471;52.150;4.508;2023-08-31T09:44:22;60.92;51.26;71.31;;
72466;Laerm;60471;52.150;4.508;2023-08-31T09:46:48;60.72;50.03;80.82;;
72466;Laerm;60471;52.150;4.508;2023-08-31T09:49:17;60.57;51.35;70.46;;
72466;Laerm;60471;52.150;4.508;2023-08-31T09:51:46;60.49;50.54;70.53;;
72466;Laerm;60471;52.150;4.508;2023-08-31T09:54:15;59.82;48.41;70.21;;
72466;Laerm;60471;52.150;4.508;2023-08-31T09:56:44;60.28;48.85;70.83;;
72466;Laerm;60471;52.150;4.508;2023-08-31T09:59:13;62.45;54.49;70.15;;
72466;Laerm;60471;52.150;4.508;2023-08-31T10:01:41;60.89;51.06;70.37;;
72466;Laerm;60471;52.150;4.508;2023-08-31T10:04:08;60.05;49.92;70.40;;
72466;Laerm;60471;52.150;4.508;2023-08-31T10:06:35;60.26;50.57;70.50;;
72466;Laerm;60471;52.150;4.508;2023-08-31T10:09:03;59.69;50.01;71.69;;
72466;Laerm;60471;52.150;4.508;2023-08-31T10:11:31;60.33;50.86;69.79;;
72466;Laerm;60471;52.150;4.508;2023-08-31T10:13:58;60.97;52.27;76.57;;
72466;Laerm;60471;52.150;4.508;2023-08-31T10:16:26;61.97;54.81;70.33;;
72466;Laerm;60471;52.150;4.508;2023-08-31T10:18:55;62.15;55.27;69.43;;
72466;Laerm;60471;52.150;4.508;2023-08-31T10:21:22;62.45;56.49;83.65;;
72466;Laerm;60471;52.150;4.508;2023-08-31T10:23:50;60.61;50.91;75.13;;
72466;Laerm;60471;52.150;4.508;2023-08-31T10:26:30;59.89;50.27;69.40;;
72466;Laerm;60471;52.150;4.508;2023-08-31T10:28:59;59.90;51.79;69.88;;
72466;Laerm;60471;52.150;4.508;2023-08-31T10:31:30;59.55;50.63;68.49;;
72466;Laerm;60471;52.150;4.508;2023-08-31T10:34:05;58.48;48.80;66.43;;
72466;Laerm;60471;52.150;4.508;2023-08-31T10:36:41;58.25;50.60;68.53;;
72466;Laerm;60471;52.150;4.508;2023-08-31T10:39:14;61.36;50.99;71.29;;
72466;Laerm;60471;52.150;4.508;2023-08-31T10:41:56;58.88;49.84;65.52;;
72466;Laerm;60471;52.150;4.508;2023-08-31T10:44:27;58.27;51.66;67.50;;
72466;Laerm;60471;52.150;4.508;2023-08-31T10:47:00;58.75;50.57;66.14;;
72466;Laerm;60471;52.150;4.508;2023-08-31T10:49:29;58.18;51.10;68.88;;
72466;Laerm;60471;52.150;4.508;2023-08-31T10:52:19;57.85;50.47;67.64;;
72466;Laerm;60471;52.150;4.508;2023-08-31T10:54:55;58.51;49.09;67.51;;
72466;Laerm;60471;52.150;4.508;2023-08-31T10:57:30;58.14;50.30;66.27;;
72466;Laerm;60471;52.150;4.508;2023-08-31T10:59:57;59.31;51.54;66.25;;
72466;Laerm;60471;52.150;4.508;2023-08-31T11:02:38;59.05;50.83;66.95;;
72466;Laerm;60471;52.150;4.508;2023-08-31T11:05:17;58.53;50.51;68.67;;
72466;Laerm;60471;52.150;4.508;2023-08-31T11:07:48;57.81;50.15;65.51;;
72466;Laerm;60471;52.150;4.508;2023-08-31T11:10:16;59.47;52.76;73.78;;
72466;Laerm;60471;52.150;4.508;2023-08-31T11:12:46;58.07;51.44;67.34;;
72466;Laerm;60471;52.150;4.508;2023-08-31T11:15:18;59.06;49.52;68.32;;
72466;Laerm;60471;52.150;4.508;2023-08-31T11:17:46;57.83;50.27;68.55;;
72466;Laerm;60471;52.150;4.508;2023-08-31T11:20:17;58.78;51.31;66.27;;
72466;Laerm;60471;52.150;4.508;2023-08-31T11:22:51;57.42;50.82;64.62;;
72466;Laerm;60471;52.150;4.508;2023-08-31T11:25:20;57.23;48.36;64.60;;
72466;Laerm;60471;52.150;4.508;2023-08-31T11:28:03;57.62;49.01;65.58;;
72466;Laerm;60471;52.150;4.508;2023-08-31T11:30:33;57.90;48.71;68.26;;
72466;Laerm;60471;52.150;4.508;2023-08-31T11:33:07;57.23;49.86;71.94;;
72466;Laerm;60471;52.150;4.508;2023-08-31T11:35:43;57.84;48.35;66.16;;
72466;Laerm;60471;52.150;4.508;2023-08-31T11:38:10;58.59;50.37;74.32;;
72466;Laerm;60471;52.150;4.508;2023-08-31T11:40:37;57.53;48.99;73.14;;
72466;Laerm;60471;52.150;4.508;2023-08-31T11:43:07;57.70;48.09;67.41;;
72466;Laerm;60471;52.150;4.508;2023-08-31T11:45:36;58.16;48.82;67.04;;
72466;Laerm;60471;52.150;4.508;2023-08-31T11:48:05;61.95;53.06;68.95;;
72466;Laerm;60471;52.150;4.508;2023-08-31T11:50:32;61.23;54.51;67.64;;
72466;Laerm;60471;52.150;4.508;2023-08-31T11:52:58;59.41;51.94;66.09;;
72466;Laerm;60471;52.150;4.508;2023-08-31T11:55:25;57.20;49.08;65.15;;
72466;Laerm;60471;52.150;4.508;2023-08-31T11:57:53;59.37;50.70;74.34;;
72466;Laerm;60471;52.150;4.508;2023-08-31T12:00:23;58.20;50.46;66.66;;
72466;Laerm;60471;52.150;4.508;2023-08-31T12:03:00;57.67;49.62;65.01;;
72466;Laerm;60471;52.150;4.508;2023-08-31T12:05:28;59.39;48.62;81.24;;
72466;Laerm;60471;52.150;4.508;2023-08-31T12:07:56;58.88;51.56;65.99;;
72466;Laerm;60471;52.150;4.508;2023-08-31T12:10:25;57.26;47.93;66.62;;
72466;Laerm;60471;52.150;4.508;2023-08-31T12:12:52;57.30;47.83;65.84;;
72466;Laerm;60471;52.150;4.508;2023-08-31T12:15:19;56.63;49.00;66.23;;
72466;Laerm;60471;52.150;4.508;2023-08-31T12:17:48;57.22;47.34;66.47;;
72466;Laerm;60471;52.150;4.508;2023-08-31T12:20:25;56.99;48.65;67.53;;
72466;Laerm;60471;52.150;4.508;2023-08-31T12:22:55;57.54;48.64;69.24;;
72466;Laerm;60471;52.150;4.508;2023-08-31T12:25:22;57.73;50.04;67.12;;
72466;Laerm;60471;52.150;4.508;2023-08-31T12:27:48;57.86;47.23;65.77;;
72466;Laerm;60471;52.150;4.508;2023-08-31T12:30:15;57.43;49.11;66.86;;
72466;Laerm;60471;52.150;4.508;2023-08-31T12:32:42;58.59;50.22;64.92;;
72466;Laerm;60471;52.150;4.508;2023-08-31T12:35:08;57.96;49.75;68.86;;
72466;Laerm;60471;52.150;4.508;2023-08-31T12:37:35;58.86;52.27;68.06;;
72466;Laerm;60471;52.150;4.508;2023-08-31T12:40:02;56.74;47.10;64.94;;
72466;Laerm;60471;52.150;4.508;2023-08-31T12:42:32;57.42;49.24;66.62;;
72466;Laerm;60471;52.150;4.508;2023-08-31T12:44:58;58.39;51.07;64.75;;
72466;Laerm;60471;52.150;4.508;2023-08-31T12:47:24;57.49;49.20;70.99;;
72466;Laerm;60471;52.150;4.508;2023-08-31T12:49:50;58.46;51.06;66.01;;
72466;Laerm;60471;52.150;4.508;2023-08-31T12:52:16;57.73;46.80;65.72;;
72466;Laerm;60471;52.150;4.508;2023-08-31T12:54:43;57.32;48.81;65.12;;
72466;Laerm;60471;52.150;4.508;2023-08-31T12:57:09;56.75;49.02;65.02;;
72466;Laerm;60471;52.150;4.508;2023-08-31T12:59:35;57.75;49.80;66.06;;
72466;Laerm;60471;52.150;4.508;2023-08-31T13:02:01;57.57;50.37;63.65;;
72466;Laerm;60471;52.150;4.508;2023-08-31T13:04:33;58.06;49.44;66.32;;
72466;Laerm;60471;52.150;4.508;2023-08-31T13:06:59;58.37;50.50;67.39;;
72466;Laerm;60471;52.150;4.508;2023-08-31T13:09:25;58.63;50.40;67.05;;
72466;Laerm;60471;52.150;4.508;2023-08-31T13:11:51;57.83;48.73;66.65;;
72466;Laerm;60471;52.150;4.508;2023-08-31T13:14:18;57.43;50.84;64.21;;
72466;Laerm;60471;52.150;4.508;2023-08-31T13:16:44;58.02;49.61;66.50;;
72466;Laerm;60471;52.150;4.508;2023-08-31T13:19:11;57.96;49.45;65.60;;
72466;Laerm;60471;52.150;4.508;2023-08-31T13:21:37;58.38;48.31;70.60;;
72466;Laerm;60471;52.150;4.508;2023-08-31T13:24:03;56.56;46.13;64.53;;
72466;Laerm;60471;52.150;4.508;2023-08-31T13:26:30;57.42;47.57;71.46;;
72466;Laerm;60471;52.150;4.508;2023-08-31T13:28:56;57.22;48.00;67.03;;
72466;Laerm;60471;52.150;4.508;2023-08-31T13:31:22;57.31;47.78;65.46;;
72466;Laerm;60471;52.150;4.508;2023-08-31T13:33:49;56.45;48.63;65.22;;
72466;Laerm;60471;52.150;4.508;2023-08-31T13:36:15;57.79;47.07;66.07;;
72466;Laerm;60471;52.150;4.508;2023-08-31T13:38:41;57.05;47.80;65.70;;
72466;Laerm;60471;52.150;4.508;2023-08-31T13:41:07;58.04;47.80;68.84;;
72466;Laerm;60471;52.150;4.508;2023-08-31T13:43:34;57.32;49.19;63.95;;
72466;Laerm;60471;52.150;4.508;2023-08-31T13:46:00;57.33;48.84;66.95;;
72466;Laerm;60471;52.150;4.508;2023-08-31T13:48:26;56.74;46.32;68.17;;
72466;Laerm;60471;52.150;4.508;2023-08-31T13:50:53;55.51;45.22;63.99;;